Alpha, Iowa
Current Conditions -  °F | °C
As of 11:15 AM on Sunday 23 Nov 2014 (Local Time) from KDEH Reporting Station
Haze Haze  
Wind Chill: 10°   Ceiling: 400
Heat Index: 10°   Visibility: 2.5mi
Dew Point: 10°   Wind: 10mph
Humidity: 100%   Direction: 170°S
Pressure: 29.48"   Gusts: 17mph
Location:  43.0382°N, 92.0219°W
Report Text: KDEH 231715Z AUTO 17009G15KT 2 1/2SM BR OVC004 10/10 A2948 RMK AO2
Loading
Personal Weather Stations






























Interactive Weather Map New forecast layout! Learn more

10-Day Weather Forecast

Advertisements
Track Severe Weather on mobile